Oxford, NC (27565)

4:35 PM EDT on July 29, 2016 (GMT -0400)
Lynne ave | | Change Station

Elev 400 ft 36.33 °N, 78.44 °W | Updated 25 seconds ago

Clear
Clear
88.4 °F
Feels Like 99 °F
N
0.0
Wind Variable Wind from North
Gusts 3.0 mph

Today
High -- | Low -- °F
--% Chance of Precip.
Yesterday
High -- | Low -- °F
Precip. -- in
Pressure 29.94 in
Visibility 10.0 miles
Clouds Clear
Heat Index 99 °F
Dew Point 76 °F
Humidity 66%
Rainfall 23.22 in
Snow Depth Not available.
6:19 AM 8:22 PM
Waning Crescent, 19% visible
METAR KTDF 292020Z AUTO 28004KT 10SM CLR 30/20 A2994 RMK AO2
Pressure 29.94 in
Visibility 10.0 miles
Clouds Clear
Heat Index 99 °F
Dew Point 76 °F
Humidity 66%
Rainfall 23.22 in
Snow Depth Not available.
6:19 AM 8:22 PM
Waning Crescent, 19% visible
METAR KTDF 292020Z AUTO 28004KT 10SM CLR 30/20 A2994 RMK AO2

10-Day Weather Forecast

Almanac

Astronomy

Jul. 29, 2016 Rise Set
Actual Time
Civil Twilight
Nautical Twilight
Astronomical Twilight
Moon
Length of Visible Light
Length of Day
Tomorrow will be .
, % of the Moon is Illuminated

Today's Extremes

State Highs State Lows

Community

WunderPhotos

Upload Photos

1,928,407 photos uploaded!

WunderBlog® & News

Nearby

Air Quality

  Air Quality AQ Index Pollutant
Not available.

Snow Depth

Station Depth Elevation

Earthquake Activity

City Distance Mag. Time & Date
Minimum magnitude displayed is 2.5.

Coastal Water Temperatures

Place Temperature

Stations

Nearby Weather Stations

Station Location Temp. Windchill Dew Point Humidity Wind Precip. Elev Updated Type
                   

Watches & Warnings

There are currently no watches in effect.